createdAt,value
2022-09-21T00:01:10.595Z,7.13
2022-09-21T00:04:19.008Z,7.12
2022-09-21T00:07:24.465Z,7.08
2022-09-21T00:10:31.080Z,7.13
2022-09-21T00:13:38.129Z,7.18
2022-09-21T00:16:46.043Z,7.16
2022-09-21T00:19:54.280Z,7.16
2022-09-21T00:22:59.867Z,7.14
2022-09-21T00:26:12.347Z,7.19
2022-09-21T00:29:18.111Z,7.26
2022-09-21T00:32:25.344Z,7.13
2022-09-21T00:35:33.756Z,7.11
2022-09-21T00:38:40.747Z,7.04
2022-09-21T00:41:46.381Z,7.08
2022-09-21T00:44:52.984Z,6.99
2022-09-21T00:48:06.619Z,6.92
2022-09-21T00:51:15.986Z,6.91
2022-09-21T00:54:30.139Z,6.88
2022-09-21T00:57:38.821Z,6.84
2022-09-21T01:00:47.544Z,6.72
2022-09-21T01:03:57.486Z,6.75
2022-09-21T01:07:15.972Z,6.78
2022-09-21T01:10:23.974Z,6.85
2022-09-21T01:13:50.507Z,6.82
2022-09-21T01:17:09.905Z,6.84
2022-09-21T01:21:16.153Z,6.86
2022-09-21T01:25:11.033Z,6.90
2022-09-21T01:28:39.493Z,6.89
2022-09-21T01:31:59.098Z,6.93
2022-09-21T01:35:13.764Z,6.98
2022-09-21T01:38:28.063Z,6.95
2022-09-21T01:41:38.329Z,6.81
2022-09-21T01:44:48.963Z,6.89
2022-09-21T01:48:03.573Z,6.95
2022-09-21T01:51:17.911Z,6.90
2022-09-21T01:54:34.026Z,6.95
2022-09-21T01:57:50.310Z,7.04
2022-09-21T02:01:01.143Z,7.00
2022-09-21T02:04:15.970Z,7.00
2022-09-21T02:07:22.792Z,6.95
2022-09-21T02:10:39.348Z,7.02
2022-09-21T02:13:54.545Z,6.99
2022-09-21T02:17:20.836Z,7.08
2022-09-21T02:20:36.756Z,7.09
2022-09-21T02:23:52.941Z,7.12
2022-09-21T02:27:08.932Z,7.21
2022-09-21T02:30:21.969Z,7.21
2022-09-21T02:33:37.529Z,7.20
2022-09-21T02:36:57.132Z,7.13
2022-09-21T02:40:20.396Z,7.19
2022-09-21T02:43:37.921Z,7.08
2022-09-21T02:46:56.409Z,7.04
2022-09-21T02:50:12.312Z,7.10
2022-09-21T02:53:29.688Z,7.11
2022-09-21T02:56:36.138Z,7.12
2022-09-21T02:59:42.459Z,7.19
2022-09-21T03:02:49.255Z,7.17
2022-09-21T03:05:59.090Z,7.12
2022-09-21T03:09:07.556Z,7.17
2022-09-21T03:12:14.052Z,7.21
2022-09-21T03:15:20.154Z,7.24
2022-09-21T03:18:25.747Z,7.23
2022-09-21T03:21:31.373Z,7.23
2022-09-21T03:24:48.706Z,7.24
2022-09-21T03:27:54.322Z,7.23
2022-09-21T03:31:01.296Z,7.20
2022-09-21T03:34:06.748Z,7.22
2022-09-21T03:37:14.223Z,7.27
2022-09-21T03:40:26.519Z,7.23
2022-09-21T03:43:32.152Z,7.29
2022-09-21T03:46:38.128Z,7.26
2022-09-21T03:49:43.625Z,7.15
2022-09-21T03:52:49.541Z,7.11
2022-09-21T03:55:59.149Z,7.08
2022-09-21T03:59:11.792Z,6.98
2022-09-21T04:02:19.982Z,6.96
2022-09-21T04:05:26.113Z,6.94
2022-09-21T04:08:33.879Z,6.95
2022-09-21T04:11:42.167Z,6.86
2022-09-21T04:14:47.694Z,6.97
2022-09-21T04:17:55.989Z,6.98
2022-09-21T04:21:01.767Z,7.04
2022-09-21T04:24:08.758Z,7.06
2022-09-21T04:27:17.692Z,7.10
2022-09-21T04:30:26.317Z,7.14
2022-09-21T04:33:31.983Z,7.15
2022-09-21T04:36:37.554Z,7.13
2022-09-21T04:39:43.507Z,7.14
2022-09-21T04:43:01.585Z,7.10
2022-09-21T04:46:12.792Z,6.95
2022-09-21T04:49:18.291Z,6.85
2022-09-21T04:52:24.071Z,6.90
2022-09-21T04:55:29.607Z,6.87
2022-09-21T04:58:40.037Z,6.93
2022-09-21T05:01:45.843Z,6.94
2022-09-21T05:04:51.414Z,7.04
2022-09-21T05:07:56.921Z,7.02
2022-09-21T05:10:59.868Z,6.99
2022-09-21T05:14:12.438Z,6.98
2022-09-21T05:17:17.945Z,6.92
2022-09-21T05:20:26.191Z,6.78
2022-09-21T05:23:34.838Z,6.74
2022-09-21T05:26:40.733Z,6.60
2022-09-21T05:29:50.006Z,6.72
2022-09-21T05:33:06.633Z,6.72
2022-09-21T05:36:42.419Z,6.77
2022-09-21T05:39:48.879Z,6.87
2022-09-21T05:43:18.337Z,6.92
2022-09-21T05:46:42.371Z,6.86
2022-09-21T05:50:19.771Z,6.94
2022-09-21T05:53:52.374Z,7.02
2022-09-21T05:57:15.233Z,6.98
2022-09-21T06:00:25.163Z,6.98
2022-09-21T06:03:42.454Z,7.15
2022-09-21T06:06:48.097Z,7.17
2022-09-21T06:09:54.585Z,7.04
2022-09-21T06:13:00.425Z,7.16
2022-09-21T06:16:07.701Z,7.27
2022-09-21T06:19:17.527Z,7.23
2022-09-21T06:22:23.130Z,7.12
2022-09-21T06:25:28.636Z,7.12
2022-09-21T06:28:35.869Z,7.16
2022-09-21T06:31:41.353Z,7.24
2022-09-21T06:34:50.103Z,7.17
2022-09-21T06:37:55.663Z,7.23
2022-09-21T06:41:06.687Z,7.16
2022-09-21T06:44:12.152Z,7.18
2022-09-21T06:47:17.901Z,7.34
2022-09-21T06:50:26.902Z,7.47
2022-09-21T06:53:36.213Z,7.31
2022-09-21T06:56:43.401Z,7.42
2022-09-21T06:59:49.013Z,7.36
2022-09-21T07:02:55.816Z,7.40
2022-09-21T07:06:06.221Z,7.46
2022-09-21T07:12:37.997Z,7.56
2022-09-21T07:15:43.525Z,7.60
2022-09-21T07:18:49.139Z,7.67
2022-09-21T07:21:59.291Z,7.62
2022-09-21T07:25:05.713Z,7.61
2022-09-21T07:28:16.516Z,7.56
2022-09-21T07:31:22.019Z,7.81
2022-09-21T07:34:28.655Z,7.94
2022-09-21T07:37:37.111Z,7.99
2022-09-21T07:40:43.322Z,8.16
2022-09-21T07:43:49.203Z,8.08
2022-09-21T07:46:54.860Z,8.09
2022-09-21T07:50:08.555Z,8.21
2022-09-21T07:53:25.388Z,7.99
2022-09-21T07:56:33.247Z,8.09
2022-09-21T07:59:36.255Z,8.19
2022-09-21T08:02:47.444Z,8.10
2022-09-21T08:05:56.092Z,8.21
2022-09-21T08:09:06.347Z,8.02
2022-09-21T08:12:13.691Z,8.13
2022-09-21T08:15:44.093Z,8.22
2022-09-21T08:18:46.323Z,8.34
2022-09-21T08:21:56.912Z,8.40
2022-09-21T08:25:06.115Z,8.44
2022-09-21T08:28:11.680Z,8.52
2022-09-21T08:31:17.256Z,8.53
2022-09-21T08:34:24.261Z,8.46
2022-09-21T08:37:29.823Z,8.41
2022-09-21T08:40:38.774Z,8.52
2022-09-21T08:43:48.864Z,8.51
2022-09-21T08:47:07.904Z,8.68
2022-09-21T08:50:40.351Z,8.68
2022-09-21T08:53:51.912Z,8.76
2022-09-21T08:57:06.213Z,8.83
2022-09-21T09:00:23.257Z,8.84
2022-09-21T09:03:57.865Z,8.90
2022-09-21T09:07:44.556Z,8.87
2022-09-21T09:11:17.177Z,8.97
2022-09-21T09:15:14.464Z,9.25
2022-09-21T09:18:40.255Z,9.45
2022-09-21T09:21:50.576Z,9.67
2022-09-21T09:25:04.419Z,9.85
2022-09-21T09:28:29.926Z,10.06
2022-09-21T09:31:40.799Z,10.10
2022-09-21T09:34:58.072Z,9.89
2022-09-21T09:38:16.337Z,10.00
2022-09-21T09:42:03.817Z,9.90
2022-09-21T09:45:41.294Z,10.06
2022-09-21T09:49:20.401Z,10.29
2022-09-21T09:52:26.122Z,10.28
2022-09-21T09:55:42.618Z,10.13
2022-09-21T09:58:56.212Z,10.19
2022-09-21T10:02:06.029Z,10.12
2022-09-21T10:05:26.098Z,10.24
2022-09-21T10:08:47.981Z,10.34
2022-09-21T10:11:55.884Z,10.07
2022-09-21T10:15:04.024Z,10.46
2022-09-21T10:18:23.562Z,10.22
2022-09-21T10:21:45.132Z,10.70
2022-09-21T10:24:59.261Z,11.12
2022-09-21T10:28:07.345Z,11.14
2022-09-21T10:31:25.237Z,11.93
2022-09-21T10:34:39.848Z,11.85
2022-09-21T10:37:54.639Z,11.99
2022-09-21T10:41:01.145Z,13.01
2022-09-21T10:44:07.213Z,14.00
2022-09-21T10:47:26.700Z,13.96
2022-09-21T10:50:40.144Z,14.57
2022-09-21T10:54:01.943Z,14.51
2022-09-21T10:57:17.947Z,14.27
2022-09-21T11:00:46.378Z,14.02
2022-09-21T11:04:03.464Z,14.48
2022-09-21T11:07:31.326Z,14.35
2022-09-21T11:10:56.208Z,13.71
2022-09-21T11:14:19.374Z,13.21
2022-09-21T11:17:42.157Z,13.09
2022-09-21T11:20:58.340Z,12.83
2022-09-21T11:24:28.428Z,13.34
2022-09-21T11:27:44.672Z,13.56
2022-09-21T11:31:32.894Z,13.72
2022-09-21T11:35:05.554Z,14.38
2022-09-21T11:38:21.758Z,15.00
2022-09-21T11:41:56.460Z,15.37
2022-09-21T11:45:16.704Z,15.16
2022-09-21T11:48:40.456Z,14.87
2022-09-21T11:52:18.912Z,15.35
2022-09-21T11:56:00.658Z,15.50
2022-09-21T11:59:55.689Z,14.52
2022-09-21T12:04:07.638Z,14.35
2022-09-21T12:08:05.855Z,14.42
2022-09-21T12:11:33.493Z,14.43
2022-09-21T12:14:54.644Z,14.28
2022-09-21T12:18:14.096Z,14.34
2022-09-21T12:21:30.788Z,14.04
2022-09-21T12:24:46.296Z,13.67
2022-09-21T12:28:01.077Z,13.21
2022-09-21T12:31:15.294Z,12.92
2022-09-21T12:34:33.869Z,12.91
2022-09-21T12:37:51.951Z,13.08
2022-09-21T12:41:19.197Z,12.98
2022-09-21T12:44:52.236Z,12.98
2022-09-21T12:48:11.784Z,13.70
2022-09-21T12:51:26.016Z,13.86
2022-09-21T12:54:50.259Z,13.89
2022-09-21T12:58:15.528Z,13.42
2022-09-21T13:01:36.608Z,14.00
2022-09-21T13:05:07.948Z,14.09
2022-09-21T13:08:36.899Z,13.85
2022-09-21T13:12:00.538Z,13.72
2022-09-21T13:15:26.396Z,13.49
2022-09-21T13:18:36.890Z,13.53
2022-09-21T13:21:50.918Z,13.49
2022-09-21T13:25:09.672Z,13.47
2022-09-21T13:28:25.002Z,13.42
2022-09-21T13:32:08.951Z,13.42
2022-09-21T13:36:17.041Z,13.48
2022-09-21T13:39:22.950Z,13.60
2022-09-21T13:42:50.267Z,13.41
2022-09-21T13:46:01.749Z,13.66
2022-09-21T13:49:23.857Z,13.57
2022-09-21T13:52:43.200Z,13.52
2022-09-21T13:55:56.759Z,13.66
2022-09-21T13:59:09.947Z,13.75
2022-09-21T14:02:36.508Z,13.69
2022-09-21T14:05:48.226Z,13.52
2022-09-21T14:09:06.035Z,13.68
2022-09-21T14:12:28.114Z,13.54
2022-09-21T14:15:43.606Z,13.06
2022-09-21T14:18:51.882Z,12.86
2022-09-21T14:22:53.825Z,12.46
2022-09-21T14:26:14.940Z,12.28
2022-09-21T14:29:49.095Z,12.35
2022-09-21T14:33:11.358Z,12.66
2022-09-21T14:36:31.207Z,12.92
2022-09-21T14:39:44.612Z,12.99
2022-09-21T14:42:51.620Z,12.79
2022-09-21T14:46:27.775Z,12.73
2022-09-21T14:50:07.452Z,12.48
2022-09-21T14:53:56.401Z,11.95
2022-09-21T14:57:37.833Z,11.70
2022-09-21T15:00:48.927Z,11.53
2022-09-21T15:04:36.106Z,11.40
2022-09-21T15:08:04.859Z,11.06
2022-09-21T15:11:31.374Z,10.84
2022-09-21T15:14:44.321Z,10.60
2022-09-21T15:17:59.861Z,10.14
2022-09-21T15:21:26.556Z,9.94
2022-09-21T15:24:36.527Z,9.87
2022-09-21T15:27:48.690Z,9.62
2022-09-21T15:30:54.396Z,9.57
2022-09-21T15:34:00.748Z,9.47
2022-09-21T15:37:19.938Z,9.35
2022-09-21T15:40:34.435Z,9.29
2022-09-21T15:43:48.242Z,9.22
2022-09-21T15:47:03.342Z,9.09
2022-09-21T15:50:23.774Z,8.99
2022-09-21T15:53:37.262Z,8.97
2022-09-21T15:56:48.106Z,9.03
2022-09-21T15:59:56.882Z,9.07
2022-09-21T16:03:10.020Z,9.13
2022-09-21T16:06:29.440Z,9.08
2022-09-21T16:09:45.843Z,9.03
2022-09-21T16:12:51.500Z,9.07
2022-09-21T16:16:07.114Z,9.01
2022-09-21T16:19:20.002Z,9.05
2022-09-21T16:22:32.840Z,9.15
2022-09-21T16:25:41.066Z,9.12
2022-09-21T16:28:46.834Z,9.13
2022-09-21T16:32:15.766Z,9.09
2022-09-21T16:35:31.825Z,8.97
2022-09-21T16:38:37.388Z,9.00
2022-09-21T16:41:51.098Z,8.92
2022-09-21T16:44:58.429Z,8.80
2022-09-21T16:48:08.594Z,8.75
2022-09-21T16:51:22.548Z,8.74
2022-09-21T16:54:32.250Z,8.63
2022-09-21T16:57:38.263Z,8.58
2022-09-21T17:00:47.460Z,8.53
2022-09-21T17:03:56.984Z,8.47
2022-09-21T17:07:11.058Z,8.43
2022-09-21T17:10:35.162Z,8.45
2022-09-21T17:13:40.868Z,8.42
2022-09-21T17:16:50.504Z,8.47
2022-09-21T17:19:58.618Z,8.47
2022-09-21T17:23:04.931Z,8.47
2022-09-21T17:26:21.421Z,8.34
2022-09-21T17:29:31.060Z,8.36
2022-09-21T17:32:38.841Z,8.33
2022-09-21T17:35:47.304Z,8.29
2022-09-21T17:38:52.866Z,8.31
2022-09-21T17:42:07.778Z,8.25
2022-09-21T17:45:32.794Z,8.22
2022-09-21T17:48:43.337Z,8.13
2022-09-21T17:52:06.476Z,8.11
2022-09-21T17:55:21.532Z,8.01
2022-09-21T17:58:50.461Z,7.92
2022-09-21T18:01:59.777Z,7.93
2022-09-21T18:05:23.394Z,7.85
2022-09-21T18:08:34.268Z,7.75
2022-09-21T18:12:05.094Z,7.71
2022-09-21T18:15:25.327Z,7.67
2022-09-21T18:18:49.441Z,7.63
2022-09-21T18:22:14.296Z,7.54
2022-09-21T18:25:34.497Z,7.55
2022-09-21T18:28:44.269Z,7.49
2022-09-21T18:32:10.314Z,7.49
2022-09-21T18:36:06.193Z,7.57
2022-09-21T18:39:37.454Z,7.62
2022-09-21T18:43:00.028Z,7.65
2022-09-21T18:46:15.041Z,7.67
2022-09-21T18:49:51.228Z,7.66
2022-09-21T18:53:09.623Z,7.73
2022-09-21T18:56:19.187Z,7.76
2022-09-21T18:59:31.729Z,7.72
2022-09-21T19:02:58.989Z,7.73
2022-09-21T19:06:48.893Z,7.73
2022-09-21T19:10:15.327Z,7.76
2022-09-21T19:14:02.681Z,7.81
2022-09-21T19:17:37.894Z,7.87
2022-09-21T19:21:27.091Z,7.87
2022-09-21T19:25:13.730Z,7.88
2022-09-21T19:29:08.158Z,7.88
2022-09-21T19:32:21.308Z,7.86
2022-09-21T19:35:39.221Z,7.81
2022-09-21T19:38:59.178Z,7.84
2022-09-21T19:42:30.527Z,7.76
2022-09-21T19:45:54.775Z,7.81
2022-09-21T19:49:18.599Z,7.64
2022-09-21T19:52:33.218Z,7.61
2022-09-21T19:55:55.397Z,7.55
2022-09-21T19:59:14.843Z,7.56
2022-09-21T20:02:32.778Z,7.56
2022-09-21T20:05:58.335Z,7.50
2022-09-21T20:09:18.312Z,7.51
2022-09-21T20:12:36.807Z,7.57
2022-09-21T20:15:52.693Z,7.62
2022-09-21T20:19:09.569Z,7.66
2022-09-21T20:22:21.140Z,7.71
2022-09-21T20:25:35.182Z,7.70
2022-09-21T20:28:41.782Z,7.79
2022-09-21T20:31:48.857Z,7.84
2022-09-21T20:34:54.281Z,7.83
2022-09-21T20:38:03.322Z,7.86
2022-09-21T20:41:15.726Z,7.85
2022-09-21T20:44:22.175Z,7.91
2022-09-21T20:47:29.292Z,7.90
2022-09-21T20:50:36.667Z,8.01
2022-09-21T20:53:45.898Z,7.92
2022-09-21T20:56:52.301Z,7.91
2022-09-21T20:59:57.897Z,7.91
2022-09-21T21:03:04.637Z,7.97
2022-09-21T21:06:13.660Z,7.91
2022-09-21T21:09:21.915Z,7.91
2022-09-21T21:12:27.697Z,7.98
2022-09-21T21:15:36.615Z,8.03
2022-09-21T21:18:43.069Z,8.09
2022-09-21T21:21:48.737Z,8.08
2022-09-21T21:24:56.899Z,8.12
2022-09-21T21:28:07.022Z,8.11
2022-09-21T21:31:12.815Z,8.06
2022-09-21T21:34:34.109Z,8.03
2022-09-21T21:37:47.978Z,7.96
2022-09-21T21:41:01.037Z,7.87
2022-09-21T21:44:06.592Z,7.82
2022-09-21T21:50:38.317Z,7.83
2022-09-21T21:53:43.953Z,7.89
2022-09-21T21:56:52.447Z,7.89
2022-09-21T21:59:57.949Z,7.90
2022-09-21T22:03:05.143Z,7.93
2022-09-21T22:06:12.975Z,7.90
2022-09-21T22:09:22.357Z,7.82
2022-09-21T22:12:30.431Z,7.87
2022-09-21T22:15:39.105Z,7.92
2022-09-21T22:18:49.207Z,7.93
2022-09-21T22:21:55.165Z,7.90
2022-09-21T22:25:00.711Z,7.76
2022-09-21T22:28:09.229Z,7.67
2022-09-21T22:31:19.381Z,7.61
2022-09-21T22:34:24.920Z,7.62
2022-09-21T22:37:30.386Z,7.56
2022-09-21T22:40:35.992Z,7.47
2022-09-21T22:43:44.716Z,7.42
2022-09-21T22:46:50.248Z,7.38
2022-09-21T22:49:56.535Z,7.30
2022-09-21T22:53:02.288Z,7.23
2022-09-21T22:56:11.845Z,7.21
2022-09-21T22:59:19.975Z,7.09
2022-09-21T23:02:25.646Z,7.04
2022-09-21T23:05:31.534Z,6.93
2022-09-21T23:08:39.159Z,6.93
2022-09-21T23:11:48.209Z,6.90
2022-09-21T23:14:57.319Z,6.89
2022-09-21T23:18:09.149Z,6.82
2022-09-21T23:21:23.132Z,6.77
2022-09-21T23:24:28.683Z,6.72
2022-09-21T23:27:34.693Z,6.69
2022-09-21T23:30:43.132Z,6.67
2022-09-21T23:33:52.482Z,6.64
2022-09-21T23:36:58.098Z,6.64
2022-09-21T23:40:04.190Z,6.65
2022-09-21T23:43:11.978Z,6.61
2022-09-21T23:46:29.718Z,6.61
2022-09-21T23:49:35.223Z,6.59
2022-09-21T23:52:42.955Z,6.53
2022-09-21T23:55:48.509Z,6.51
2022-09-21T23:58:55.619Z,6.50
